Time;durP1;ratioP1;P1;durP2;ratioP2;P2;SDS_P1;SDS_P2;PMS_P1;PMS_P2;Temp;Humidity;BMP_temperature;BMP_pressure;BME280_temperature;BME280_humidity;BME280_pressure;Samples;Min_cycle;Max_cycle;Signal;HPM_P1;HPM_P2
2022/06/28 00:01:59;;;;;;;0.60;0.60;;;16.40;99.90;;;;;;5028980;28;20233;-50
2022/06/28 00:04:28;;;;;;;0.70;0.70;;;16.40;99.90;;;;;;5012529;28;20227;-49
2022/06/28 00:06:56;;;;;;;0.87;0.50;;;16.30;99.90;;;;;;5020770;28;20210;-50
2022/06/28 00:09:23;;;;;;;0.97;0.97;;;16.30;99.90;;;;;;5016241;28;20203;-50
2022/06/28 00:11:50;;;;;;;0.70;0.70;;;16.40;99.90;;;;;;5020691;28;20238;-51
2022/06/28 00:17:02;;;;;;;2.30;0.80;;;16.60;99.90;;;;;;5024063;28;20214;-50
2022/06/28 00:19:31;;;;;;;0.87;0.87;;;16.60;99.90;;;;;;5026558;28;20202;-50
2022/06/28 00:21:58;;;;;;;1.53;0.77;;;16.60;99.90;;;;;;5016587;28;20199;-50
2022/06/28 00:24:26;;;;;;;1.17;0.90;;;16.60;99.90;;;;;;5017394;28;20713;-50
2022/06/28 00:26:53;;;;;;;0.97;0.97;;;16.60;99.90;;;;;;5019896;28;20270;-50
2022/06/28 00:29:20;;;;;;;0.70;0.70;;;16.60;99.90;;;;;;5021363;28;20211;-49
2022/06/28 00:31:47;;;;;;;0.77;0.77;;;16.70;99.90;;;;;;5012302;28;20274;-51
2022/06/28 00:34:14;;;;;;;1.13;0.83;;;16.70;99.90;;;;;;5020157;28;20282;-50
2022/06/28 00:36:42;;;;;;;1.37;1.27;;;16.70;99.90;;;;;;5027784;28;20260;-51
2022/06/28 00:39:10;;;;;;;0.80;0.80;;;16.70;99.90;;;;;;5033110;28;20253;-50
2022/06/28 00:41:38;;;;;;;0.70;0.70;;;16.70;99.90;;;;;;5011342;28;20207;-51
2022/06/28 00:44:05;;;;;;;0.87;0.77;;;16.70;99.90;;;;;;5013735;28;20239;-50
2022/06/28 00:46:34;;;;;;;0.53;0.53;;;16.70;99.90;;;;;;5027280;28;20202;-51
2022/06/28 00:49:02;;;;;;;0.90;0.90;;;16.80;99.90;;;;;;5014068;28;20815;-49
2022/06/28 00:51:29;;;;;;;2.13;1.00;;;16.70;99.90;;;;;;5012306;28;20211;-50
2022/06/28 00:54:01;;;;;;;0.70;0.63;;;16.80;99.90;;;;;;5014054;28;20247;-51
2022/06/28 00:56:29;;;;;;;0.50;0.50;;;16.80;99.90;;;;;;5011920;28;20214;-50
2022/06/28 00:58:57;;;;;;;0.50;0.50;;;16.80;99.90;;;;;;5011616;28;20249;-50
2022/06/28 01:01:25;;;;;;;0.60;0.60;;;16.80;99.90;;;;;;5008327;28;20246;-51
2022/06/28 01:03:53;;;;;;;0.97;0.67;;;16.80;99.90;;;;;;5004659;28;20344;-50
2022/06/28 01:06:21;;;;;;;0.80;0.80;;;16.80;99.90;;;;;;5009731;28;20203;-51
2022/06/28 01:08:49;;;;;;;0.50;0.50;;;16.80;99.90;;;;;;5009204;28;20234;-50
2022/06/28 01:11:21;;;;;;;0.50;0.50;;;16.80;99.90;;;;;;5011419;28;20207;-50
2022/06/28 01:13:50;;;;;;;1.43;0.70;;;16.80;99.90;;;;;;5017991;28;20631;-50
2022/06/28 01:16:20;;;;;;;0.60;0.60;;;16.80;99.90;;;;;;5018565;28;20207;-51
2022/06/28 01:18:49;;;;;;;0.80;0.80;;;16.80;99.90;;;;;;5007738;28;20199;-50
2022/06/28 01:21:17;;;;;;;0.50;0.50;;;16.80;99.90;;;;;;5014196;28;20207;-50
2022/06/28 01:23:47;;;;;;;1.43;0.70;;;16.70;99.90;;;;;;5007742;28;20605;-50
2022/06/28 01:26:16;;;;;;;0.50;0.50;;;16.70;99.90;;;;;;5011373;28;20257;-51
2022/06/28 01:28:44;;;;;;;2.17;0.70;;;16.80;99.90;;;;;;5008763;28;20563;-50
2022/06/28 01:31:18;;;;;;;0.63;0.50;;;16.80;99.90;;;;;;5013774;28;20202;-50
2022/06/28 01:33:47;;;;;;;0.50;0.50;;;16.70;99.90;;;;;;5023249;28;20214;-50
2022/06/28 01:36:15;;;;;;;2.30;1.13;;;16.70;99.90;;;;;;5012904;28;20259;-51
2022/06/28 01:38:45;;;;;;;0.40;0.40;;;16.60;99.90;;;;;;5013880;28;20206;-51
2022/06/28 01:41:32;;;;;;;0.60;0.60;;;16.60;99.90;;;;;;5005040;28;20211;-51
2022/06/28 01:44:00;;;;;;;1.83;0.67;;;16.60;99.90;;;;;;5019507;28;20222;-50
2022/06/28 01:46:27;;;;;;;0.60;0.60;;;16.50;99.90;;;;;;5005264;28;20616;-50
2022/06/28 01:48:55;;;;;;;1.80;0.60;;;16.50;99.90;;;;;;5019146;28;20206;-50
2022/06/28 01:51:24;;;;;;;0.63;0.63;;;16.40;99.90;;;;;;5008520;28;20674;-50
2022/06/28 01:53:53;;;;;;;1.30;0.60;;;16.50;99.90;;;;;;5012294;28;20333;-50
2022/06/28 01:56:20;;;;;;;0.50;0.50;;;16.60;99.90;;;;;;5024800;28;20207;-51
2022/06/28 01:58:47;;;;;;;0.87;0.73;;;16.60;99.90;;;;;;5017143;28;20284;-50
2022/06/28 02:01:14;;;;;;;0.70;0.70;;;16.50;99.90;;;;;;5007406;28;20207;-50
2022/06/28 02:03:41;;;;;;;1.80;0.60;;;16.50;99.90;;;;;;5008624;28;20231;-50
2022/06/28 02:06:08;;;;;;;1.27;0.70;;;16.50;99.90;;;;;;5011607;28;20205;-50
2022/06/28 02:08:37;;;;;;;1.13;0.60;;;16.50;99.90;;;;;;5018899;28;20628;-50
2022/06/28 02:11:06;;;;;;;0.60;0.60;;;16.50;99.90;;;;;;5012635;28;20222;-50
2022/06/28 02:13:34;;;;;;;0.60;0.60;;;16.40;99.90;;;;;;5009598;28;20215;-51
2022/06/28 02:16:04;;;;;;;1.47;0.50;;;16.40;99.90;;;;;;5009585;28;20230;-50
2022/06/28 02:18:33;;;;;;;0.50;0.50;;;16.40;99.90;;;;;;5009115;28;20207;-51
2022/06/28 02:21:00;;;;;;;1.20;0.90;;;16.50;99.90;;;;;;5006256;28;20211;-50
2022/06/28 02:23:27;;;;;;;0.73;0.60;;;16.50;99.90;;;;;;5005712;28;20227;-50
2022/06/28 02:25:56;;;;;;;1.07;0.60;;;16.50;99.90;;;;;;5008773;28;20283;-51
2022/06/28 02:28:24;;;;;;;0.80;0.80;;;16.60;99.90;;;;;;5030675;28;20195;-50
2022/06/28 02:30:51;;;;;;;0.60;0.60;;;16.70;99.90;;;;;;5026570;28;20203;-50
2022/06/28 02:33:18;;;;;;;0.97;0.97;;;16.70;99.90;;;;;;5014915;28;20728;-50
2022/06/28 02:41:17;;;;;;;0.90;0.70;;;16.80;99.90;;;;;;5015332;28;20332;-50
2022/06/28 02:43:45;;;;;;;1.07;0.80;;;16.80;99.90;;;;;;5015030;28;22989;-50
2022/06/28 02:46:12;;;;;;;5.60;0.80;;;16.70;99.90;;;;;;5013891;28;20253;-50
2022/06/28 02:48:39;;;;;;;0.80;0.70;;;16.70;99.90;;;;;;5022895;28;20245;-50
2022/06/28 02:51:06;;;;;;;1.57;1.07;;;16.70;99.90;;;;;;5014203;28;20250;-50
2022/06/28 02:53:33;;;;;;;1.73;0.77;;;16.70;99.90;;;;;;5025390;28;20218;-49
2022/06/28 02:56:00;;;;;;;2.97;1.13;;;16.60;99.90;;;;;;5017263;28;20293;-50
2022/06/28 02:58:30;;;;;;;2.80;0.97;;;16.70;99.90;;;;;;5016511;28;20207;-50
2022/06/28 03:00:59;;;;;;;1.00;1.00;;;16.70;99.90;;;;;;5014644;28;20289;-50
2022/06/28 03:03:26;;;;;;;2.03;1.27;;;16.70;99.90;;;;;;5022105;28;20226;-50
2022/06/28 03:05:53;;;;;;;0.87;0.77;;;16.70;99.90;;;;;;5015934;28;20731;-50
2022/06/28 03:08:20;;;;;;;1.77;1.10;;;16.60;99.90;;;;;;5014370;28;20620;-49
2022/06/28 03:10:47;;;;;;;1.73;1.07;;;16.60;99.90;;;;;;5017873;28;20249;-50
2022/06/28 03:13:14;;;;;;;1.67;1.10;;;16.60;99.90;;;;;;5014189;28;20223;-49
2022/06/28 03:15:41;;;;;;;1.00;1.00;;;16.60;99.90;;;;;;5012954;28;20200;-49
2022/06/28 03:18:10;;;;;;;1.73;1.63;;;16.60;99.90;;;;;;5016278;28;20221;-50
2022/06/28 03:20:37;;;;;;;1.00;0.87;;;16.60;99.90;;;;;;5024628;28;20207;-50
2022/06/28 03:23:04;;;;;;;1.27;1.13;;;16.60;99.90;;;;;;5019659;28;20632;-49
2022/06/28 03:25:31;;;;;;;0.83;0.83;;;16.70;99.90;;;;;;5044212;23;20227;-54
2022/06/28 03:27:58;;;;;;;0.90;0.90;;;16.70;99.90;;;;;;5033472;28;20207;-55
2022/06/28 03:30:25;;;;;;;3.73;1.30;;;16.60;99.90;;;;;;5033297;28;20198;-55
2022/06/28 03:32:53;;;;;;;0.63;0.63;;;16.50;99.90;;;;;;5032226;28;20234;-54
2022/06/28 03:35:21;;;;;;;0.80;0.80;;;16.60;99.90;;;;;;5031672;28;20591;-54
2022/06/28 03:37:48;;;;;;;0.90;0.90;;;16.60;99.90;;;;;;5028454;28;20257;-55
2022/06/28 03:40:15;;;;;;;1.23;0.97;;;16.70;99.90;;;;;;5033188;28;20714;-54
2022/06/28 03:42:42;;;;;;;0.80;0.80;;;16.60;99.90;;;;;;5032452;28;20202;-54
2022/06/28 03:45:09;;;;;;;0.80;0.80;;;16.60;99.90;;;;;;5031183;28;20223;-54
2022/06/28 03:47:37;;;;;;;1.57;0.90;;;16.60;99.90;;;;;;5028921;28;20234;-54
2022/06/28 03:50:04;;;;;;;1.30;1.20;;;16.60;99.90;;;;;;5022082;28;20260;-54
2022/06/28 03:52:33;;;;;;;1.07;0.87;;;16.60;99.90;;;;;;5022439;28;20639;-54
2022/06/28 03:55:00;;;;;;;1.67;0.87;;;16.60;99.90;;;;;;5022735;28;20785;-54
2022/06/28 03:57:28;;;;;;;1.30;1.20;;;16.70;99.90;;;;;;5020426;28;20290;-54
2022/06/28 03:59:56;;;;;;;0.77;0.77;;;16.70;99.90;;;;;;5020590;28;20234;-54
2022/06/28 04:02:23;;;;;;;0.97;0.97;;;16.70;99.90;;;;;;5023498;28;20231;-54
2022/06/28 04:04:50;;;;;;;1.10;1.10;;;16.70;99.90;;;;;;5025640;28;20225;-54
2022/06/28 04:07:17;;;;;;;2.10;1.03;;;16.80;99.90;;;;;;5023055;28;20553;-54
2022/06/28 04:09:48;;;;;;;2.67;1.10;;;16.80;99.90;;;;;;5023069;28;20211;-54
2022/06/28 04:12:16;;;;;;;2.27;2.17;;;17.00;99.90;;;;;;5023396;28;20237;-54
2022/06/28 04:14:43;;;;;;;2.00;1.10;;;17.10;99.90;;;;;;5028030;28;20207;-54
2022/06/28 04:17:10;;;;;;;0.83;0.83;;;17.20;99.90;;;;;;5024204;28;20206;-54
2022/06/28 04:19:38;;;;;;;0.80;0.80;;;17.20;99.90;;;;;;5020182;28;20209;-54
2022/06/28 04:22:06;;;;;;;2.27;0.73;;;17.20;99.90;;;;;;5022939;28;20665;-54
2022/06/28 04:24:36;;;;;;;1.00;1.00;;;17.20;99.90;;;;;;5026157;28;20233;-54
2022/06/28 04:27:05;;;;;;;1.10;1.10;;;17.20;99.90;;;;;;5019270;28;20199;-54
2022/06/28 04:29:32;;;;;;;1.23;1.13;;;17.20;99.90;;;;;;5031234;28;20206;-54
2022/06/28 04:32:00;;;;;;;1.57;1.07;;;17.20;99.90;;;;;;5025929;28;20252;-54
2022/06/28 04:34:28;;;;;;;1.10;1.03;;;17.20;99.90;;;;;;5024073;28;20198;-54
2022/06/28 04:36:57;;;;;;;1.43;1.43;;;17.30;99.90;;;;;;5025641;28;20225;-54
2022/06/28 04:39:26;;;;;;;1.17;1.17;;;17.30;99.90;;;;;;5024668;28;20330;-54
2022/06/28 04:41:54;;;;;;;2.20;1.13;;;17.30;99.90;;;;;;5026279;28;20198;-54
2022/06/28 04:44:24;;;;;;;2.93;1.50;;;17.30;99.90;;;;;;5031322;28;20222;-53
2022/06/28 04:46:51;;;;;;;4.07;1.23;;;17.30;99.90;;;;;;5030999;28;20256;-54
2022/06/28 04:49:18;;;;;;;1.00;1.00;;;17.20;99.90;;;;;;5025694;28;20735;-54
2022/06/28 04:51:45;;;;;;;2.70;1.60;;;17.10;99.90;;;;;;5026821;28;20191;-54
2022/06/28 04:54:12;;;;;;;2.83;1.43;;;17.00;99.90;;;;;;5025116;28;20199;-54
2022/06/28 04:56:40;;;;;;;1.33;1.23;;;16.90;99.90;;;;;;5030440;28;20272;-54
2022/06/28 04:59:07;;;;;;;1.80;1.70;;;17.00;99.90;;;;;;5026980;28;20222;-54
2022/06/28 05:01:35;;;;;;;1.20;1.10;;;17.10;99.90;;;;;;5026846;28;20260;-54
2022/06/28 05:04:02;;;;;;;1.40;1.40;;;17.10;99.90;;;;;;5030439;28;20248;-53
2022/06/28 05:06:30;;;;;;;1.33;1.30;;;17.10;99.90;;;;;;5030590;28;20235;-53
2022/06/28 05:08:58;;;;;;;3.53;1.10;;;17.20;99.90;;;;;;5020083;28;20206;-54
2022/06/28 05:11:25;;;;;;;1.67;1.57;;;17.50;99.90;;;;;;5024016;28;20688;-53
2022/06/28 05:13:52;;;;;;;2.13;1.83;;;17.70;99.90;;;;;;5011662;28;20191;-54
2022/06/28 05:16:20;;;;;;;3.63;2.27;;;17.90;99.90;;;;;;5011677;28;20222;-53
2022/06/28 05:18:48;;;;;;;5.73;2.57;;;18.50;99.90;;;;;;5015452;28;20195;-54
2022/06/28 05:21:15;;;;;;;1.30;1.30;;;19.00;99.90;;;;;;5025991;28;20669;-53
2022/06/28 05:23:43;;;;;;;2.37;1.73;;;19.80;99.90;;;;;;5025500;28;20230;-54
2022/06/28 05:26:10;;;;;;;2.40;2.30;;;20.50;99.90;;;;;;5012762;28;20794;-54
2022/06/28 05:28:39;;;;;;;1.40;1.40;;;20.80;99.90;;;;;;5024854;28;20210;-54
2022/06/28 05:31:06;;;;;;;1.30;1.20;;;21.10;99.90;;;;;;5031189;28;20364;-54
2022/06/28 05:33:33;;;;;;;1.50;1.50;;;21.30;99.90;;;;;;5030927;28;20202;-54
2022/06/28 05:36:01;;;;;;;1.73;1.30;;;21.50;99.90;;;;;;5022306;28;20284;-55
2022/06/28 05:38:31;;;;;;;1.00;1.00;;;21.50;99.90;;;;;;5026260;28;20734;-56
2022/06/28 05:40:58;;;;;;;1.00;1.00;;;21.40;99.90;;;;;;5021708;28;20207;-54
2022/06/28 05:43:25;;;;;;;1.27;1.27;;;21.30;99.90;;;;;;5025736;28;20264;-54
2022/06/28 05:45:52;;;;;;;1.83;1.03;;;21.20;99.90;;;;;;5027096;28;20210;-54
2022/06/28 05:48:19;;;;;;;1.53;1.43;;;21.20;99.90;;;;;;5024961;28;20202;-55
2022/06/28 05:50:47;;;;;;;2.77;1.20;;;21.10;99.90;;;;;;5022968;28;20294;-54
2022/06/28 05:53:16;;;;;;;1.30;1.30;;;21.20;99.90;;;;;;5011278;28;20645;-57
2022/06/28 05:55:43;;;;;;;1.63;1.10;;;21.20;99.90;;;;;;5011352;28;20647;-57
2022/06/28 05:58:10;;;;;;;1.43;1.23;;;21.60;99.90;;;;;;5022511;28;20277;-57
2022/06/28 06:00:39;;;;;;;2.10;0.80;;;22.00;99.90;;;;;;5014802;28;20206;-57
2022/06/28 06:03:06;;;;;;;0.70;0.70;;;22.60;99.90;;;;;;5022282;28;20596;-54
2022/06/28 06:05:34;;;;;;;1.40;0.97;;;23.40;99.90;;;;;;5021123;28;20306;-57
2022/06/28 06:08:01;;;;;;;1.70;0.90;;;23.60;99.90;;;;;;5020633;28;20586;-57
2022/06/28 06:10:29;;;;;;;1.10;1.10;;;23.30;99.90;;;;;;5023842;28;20277;-57
2022/06/28 06:12:56;;;;;;;0.80;0.80;;;22.70;99.90;;;;;;5016318;28;20277;-57
2022/06/28 06:15:24;;;;;;;2.63;0.90;;;22.20;99.90;;;;;;5023982;28;20268;-56
2022/06/28 06:17:50;;;;;;;0.87;0.50;;;21.80;99.90;;;;;;5022942;28;20205;-57
2022/06/28 06:20:18;;;;;;;0.80;0.80;;;21.50;99.90;;;;;;5018878;28;20294;-54
2022/06/28 06:22:47;;;;;;;1.13;1.13;;;21.20;99.90;;;;;;5021560;28;20200;-53
2022/06/28 06:25:14;;;;;;;1.10;1.00;;;20.70;99.90;;;;;;5023355;28;20226;-54
2022/06/28 06:27:42;;;;;;;0.70;0.70;;;20.40;99.90;;;;;;5028904;28;20214;-53
2022/06/28 06:30:10;;;;;;;1.20;0.73;;;20.20;99.90;;;;;;5011732;28;20273;-54
2022/06/28 06:32:37;;;;;;;1.63;0.93;;;19.90;99.90;;;;;;5023023;28;20246;-54
2022/06/28 06:35:05;;;;;;;1.77;1.03;;;19.70;99.90;;;;;;5021390;28;20269;-54
2022/06/28 06:37:32;;;;;;;1.60;0.90;;;19.60;99.90;;;;;;5016275;28;20203;-54
2022/06/28 06:39:59;;;;;;;2.47;1.30;;;19.50;99.90;;;;;;5018932;28;20195;-53
2022/06/28 06:42:26;;;;;;;1.63;1.10;;;19.40;99.90;;;;;;5024275;28;20198;-53
2022/06/28 06:44:54;;;;;;;2.40;1.00;;;19.40;99.90;;;;;;5030949;28;20257;-53
2022/06/28 06:47:21;;;;;;;1.03;0.87;;;19.40;99.90;;;;;;5024827;28;20258;-53
2022/06/28 06:49:48;;;;;;;1.23;1.20;;;19.50;99.90;;;;;;5019967;28;20203;-54
2022/06/28 06:52:15;;;;;;;1.57;1.57;;;19.60;99.90;;;;;;5022437;28;20211;-53
2022/06/28 06:54:42;;;;;;;1.60;1.30;;;19.60;99.90;;;;;;5023457;28;20658;-53
2022/06/28 06:57:10;;;;;;;2.00;1.07;;;19.50;99.90;;;;;;5010938;28;20262;-54
2022/06/28 06:59:37;;;;;;;2.00;1.33;;;19.50;99.90;;;;;;5019728;28;20372;-53
2022/06/28 07:02:05;;;;;;;1.07;1.07;;;19.40;99.90;;;;;;5011193;28;20199;-53
2022/06/28 07:04:32;;;;;;;1.40;1.37;;;19.40;99.90;;;;;;5010909;28;20281;-53
2022/06/28 07:07:00;;;;;;;1.33;1.10;;;19.30;99.90;;;;;;5011010;28;20281;-53
2022/06/28 07:09:27;;;;;;;1.40;1.33;;;19.30;99.90;;;;;;5024052;28;20301;-53
2022/06/28 07:11:54;;;;;;;2.40;1.30;;;19.40;99.90;;;;;;5012137;28;20261;-53
2022/06/28 07:14:21;;;;;;;3.83;1.30;;;19.50;99.90;;;;;;5010961;28;20199;-53
2022/06/28 07:16:48;;;;;;;1.87;1.77;;;19.40;99.90;;;;;;5018998;28;20219;-55
2022/06/28 07:19:17;;;;;;;1.70;1.60;;;19.50;99.90;;;;;;5012732;28;20199;-54
2022/06/28 07:21:44;;;;;;;1.87;1.50;;;19.50;99.90;;;;;;5026357;28;20688;-54
2022/06/28 07:24:12;;;;;;;1.80;1.20;;;19.60;99.90;;;;;;5011754;28;20231;-53
2022/06/28 07:26:38;;;;;;;1.60;1.50;;;19.80;99.90;;;;;;5015785;28;20238;-54
2022/06/28 07:29:06;;;;;;;1.80;1.27;;;20.00;99.90;;;;;;5021005;28;20199;-53
2022/06/28 07:31:33;;;;;;;2.07;1.97;;;20.10;99.90;;;;;;5024824;28;20285;-54
2022/06/28 07:34:01;;;;;;;2.53;1.43;;;20.20;99.90;;;;;;5024033;28;20351;-54
2022/06/28 07:36:29;;;;;;;1.30;1.30;;;20.10;99.90;;;;;;5018115;28;20583;-53
2022/06/28 07:38:59;;;;;;;1.50;1.00;;;20.10;99.90;;;;;;5018587;28;20195;-53
2022/06/28 07:41:26;;;;;;;1.30;1.20;;;20.10;99.90;;;;;;5031492;28;20207;-54
2022/06/28 07:43:53;;;;;;;1.00;0.90;;;20.20;99.90;;;;;;5024892;28;20256;-55
2022/06/28 07:46:22;;;;;;;3.33;1.30;;;20.30;99.90;;;;;;5013821;28;20258;-54
2022/06/28 07:48:50;;;;;;;0.93;0.93;;;20.60;99.90;;;;;;5029823;28;20276;-54
2022/06/28 07:54:08;;;;;;;0.80;0.80;;;21.90;99.90;;;;;;5014859;28;20233;-53
2022/06/28 07:56:35;;;;;;;0.60;0.60;;;22.50;99.90;;;;;;5024614;28;20227;-55
2022/06/28 07:59:03;;;;;;;0.60;0.60;;;23.40;99.90;;;;;;5026417;28;20272;-57
2022/06/28 08:01:30;;;;;;;3.60;0.60;;;24.00;99.90;;;;;;5022701;28;20293;-57
2022/06/28 08:03:57;;;;;;;0.83;0.83;;;24.60;99.90;;;;;;5041563;28;20193;-57
2022/06/28 08:06:24;;;;;;;1.43;1.00;;;24.60;99.90;;;;;;5029310;28;20766;-57
2022/06/28 08:08:51;;;;;;;1.60;0.90;;;24.70;99.90;;;;;;5032210;28;20245;-57
2022/06/28 08:11:19;;;;;;;3.30;1.27;;;24.70;99.90;;;;;;5017337;28;20194;-57
2022/06/28 08:13:48;;;;;;;0.80;0.70;;;24.80;99.90;;;;;;5024194;28;20627;-57
2022/06/28 08:16:15;;;;;;;2.33;0.90;;;24.30;99.90;;;;;;5030211;28;20704;-57
2022/06/28 08:18:42;;;;;;;2.57;0.97;;;23.60;99.90;;;;;;5024099;28;20294;-57
2022/06/28 08:21:09;;;;;;;2.93;1.40;;;23.40;99.90;;;;;;5032393;28;20210;-57
2022/06/28 08:23:36;;;;;;;1.67;1.40;;;23.00;99.90;;;;;;5024010;28;20256;-57
2022/06/28 08:26:03;;;;;;;2.93;1.80;;;22.40;99.90;;;;;;5013889;28;20227;-57
2022/06/28 08:28:33;;;;;;;2.00;1.90;;;22.10;99.90;;;;;;5011544;28;20204;-54
2022/06/28 08:31:00;;;;;;;4.07;2.30;;;21.70;99.90;;;;;;5020076;28;20207;-57
2022/06/28 08:33:27;;;;;;;2.10;1.90;;;21.50;99.90;;;;;;5028017;28;20264;-54
2022/06/28 08:35:55;;;;;;;2.53;1.23;;;21.50;99.90;;;;;;5029954;28;20250;-54
2022/06/28 08:38:22;;;;;;;3.87;1.10;;;21.60;99.90;;;;;;5030332;28;20202;-54
2022/06/28 08:40:49;;;;;;;1.50;1.40;;;21.60;99.90;;;;;;5032872;28;20569;-54
2022/06/28 08:43:16;;;;;;;2.13;1.20;;;21.50;99.90;;;;;;5022462;28;20666;-54
2022/06/28 08:45:45;;;;;;;1.33;1.20;;;21.20;99.90;;;;;;5016262;28;20285;-54
2022/06/28 08:48:18;;;;;;;1.80;1.70;;;21.00;99.90;;;;;;5012841;28;20293;-53
2022/06/28 08:50:51;;;;;;;2.33;2.10;;;20.80;99.90;;;;;;5013461;28;20875;-54
2022/06/28 08:53:24;;;;;;;1.80;1.80;;;20.70;99.90;;;;;;5030433;28;20285;-54
2022/06/28 08:55:52;;;;;;;1.57;1.47;;;20.60;99.90;;;;;;5015071;28;20219;-54
2022/06/28 08:58:20;;;;;;;1.60;1.33;;;20.50;99.90;;;;;;5025007;28;20199;-54
2022/06/28 09:00:48;;;;;;;1.47;1.37;;;20.30;99.90;;;;;;5024134;28;20229;-53
2022/06/28 09:03:16;;;;;;;1.40;1.30;;;20.30;99.90;;;;;;5020266;28;20614;-56
2022/06/28 09:05:43;;;;;;;1.83;1.10;;;20.20;99.90;;;;;;5017109;28;20290;-55
2022/06/28 09:08:11;;;;;;;1.00;0.90;;;20.20;99.90;;;;;;5024519;28;20620;-56
2022/06/28 09:10:38;;;;;;;1.00;1.00;;;20.10;99.90;;;;;;5020524;28;20261;-56
2022/06/28 09:13:08;;;;;;;0.73;0.73;;;20.10;99.90;;;;;;5019675;28;20199;-56
2022/06/28 09:15:51;;;;;;;1.00;0.70;;;20.10;99.90;;;;;;5019611;28;20221;-55
2022/06/28 09:18:19;;;;;;;1.43;1.00;;;20.10;99.90;;;;;;5031955;28;20680;-55
2022/06/28 09:20:51;;;;;;;1.53;1.20;;;20.10;99.90;;;;;;5018864;28;20653;-56
2022/06/28 09:23:24;;;;;;;1.13;0.97;;;20.00;99.90;;;;;;5016146;28;20203;-56
2022/06/28 09:25:51;;;;;;;1.50;0.90;;;20.00;99.90;;;;;;5021313;28;20230;-55
2022/06/28 09:28:28;;;;;;;1.60;1.50;;;20.00;99.90;;;;;;5029822;28;20202;-54
2022/06/28 09:31:14;;;;;;;0.70;0.70;;;19.80;99.90;;;;;;5027568;28;20202;-56
2022/06/28 09:33:42;;;;;;;2.77;1.30;;;19.80;99.90;;;;;;5012167;28;20692;-55
2022/06/28 09:36:12;;;;;;;1.07;1.07;;;19.80;99.90;;;;;;5022407;28;20221;-53
2022/06/28 09:38:39;;;;;;;1.13;1.03;;;19.70;99.90;;;;;;5014430;28;20203;-56
2022/06/28 09:41:20;;;;;;;2.00;1.27;;;19.50;99.90;;;;;;5025565;28;20269;-56
2022/06/28 09:43:58;;;;;;;2.13;1.20;;;19.50;99.90;;;;;;5020467;28;20218;-54
2022/06/28 09:46:28;;;;;;;1.03;1.03;;;19.50;99.90;;;;;;5051567;22;20275;-51
2022/06/28 09:49:00;;;;;;;1.70;1.00;;;19.50;99.90;;;;;;5022827;28;20464;-50
2022/06/28 09:51:30;;;;;;;0.87;0.87;;;19.70;99.90;;;;;;5031158;28;20233;-50
2022/06/28 09:53:58;;;;;;;2.47;1.13;;;19.60;99.90;;;;;;5031290;28;20285;-50
2022/06/28 09:56:28;;;;;;;1.97;1.80;;;19.50;99.90;;;;;;5029026;28;20269;-51
2022/06/28 09:58:55;;;;;;;13.20;2.30;;;19.50;99.90;;;;;;5031484;28;20206;-51
2022/06/28 10:01:22;;;;;;;1.87;1.77;;;19.40;99.90;;;;;;5030498;28;20203;-50
2022/06/28 10:03:51;;;;;;;2.17;2.03;;;19.40;99.90;;;;;;5031322;28;20210;-51
2022/06/28 10:06:21;;;;;;;3.00;1.37;;;19.50;99.90;;;;;;5030609;28;21603;-51
2022/06/28 10:08:49;;;;;;;1.67;1.57;;;19.40;99.90;;;;;;5023190;28;20300;-51
2022/06/28 10:11:17;;;;;;;2.80;1.90;;;19.40;99.90;;;;;;5030912;28;20202;-50
2022/06/28 10:16:46;;;;;;;0.80;0.80;;;19.40;99.90;;;;;;5029730;28;20239;-48
2022/06/28 10:19:18;;;;;;;1.67;1.20;;;19.60;99.90;;;;;;5021519;28;20212;-48
2022/06/28 10:21:47;;;;;;;1.00;1.00;;;19.70;99.90;;;;;;5024793;28;20249;-48
2022/06/28 10:24:14;;;;;;;0.90;0.90;;;19.80;99.90;;;;;;5030789;28;20736;-49
2022/06/28 10:26:46;;;;;;;1.20;1.07;;;20.00;99.90;;;;;;5028551;28;20607;-48
2022/06/28 10:29:15;;;;;;;1.50;1.40;;;20.30;99.90;;;;;;5020551;28;20206;-48
2022/06/28 10:31:43;;;;;;;0.80;0.70;;;20.40;99.90;;;;;;5029807;28;20198;-48
2022/06/28 10:34:12;;;;;;;0.80;0.80;;;20.50;99.90;;;;;;5029032;28;20206;-48
2022/06/28 10:36:49;;;;;;;2.63;0.77;;;20.80;99.90;;;;;;5024539;28;20214;-48
2022/06/28 10:39:26;;;;;;;0.70;0.70;;;21.00;99.90;;;;;;5020362;28;20256;-49
2022/06/28 10:41:55;;;;;;;1.30;0.50;;;21.00;99.90;;;;;;5020653;28;20213;-48
2022/06/28 10:44:26;;;;;;;0.60;0.60;;;21.00;99.90;;;;;;5023005;28;20237;-48
2022/06/28 10:47:12;;;;;;;4.00;0.93;;;21.10;99.90;;;;;;5025344;28;20240;-47
2022/06/28 10:49:57;;;;;;;0.97;0.70;;;21.30;99.90;;;;;;5021662;28;20205;-48
2022/06/28 10:52:33;;;;;;;1.17;1.17;;;21.20;99.90;;;;;;5025314;28;20225;-49
2022/06/28 10:55:21;;;;;;;1.03;0.90;;;21.10;99.90;;;;;;5027211;28;20237;-47
2022/06/28 10:57:48;;;;;;;0.60;0.60;;;21.00;99.90;;;;;;5027626;28;20211;-47
2022/06/28 11:00:24;;;;;;;1.47;0.70;;;20.80;99.90;;;;;;5029873;28;20211;-48
2022/06/28 11:03:02;;;;;;;0.60;0.60;;;20.60;99.90;;;;;;5025514;28;20248;-49
2022/06/28 11:05:45;;;;;;;1.47;0.87;;;20.40;99.90;;;;;;5030726;28;20758;-49
2022/06/28 11:08:35;;;;;;;2.07;1.00;;;20.40;99.90;;;;;;5030405;28;20202;-48
2022/06/28 11:11:03;;;;;;;2.83;1.07;;;20.40;99.90;;;;;;5033419;28;20256;-48
2022/06/28 11:13:30;;;;;;;0.80;0.80;;;20.50;99.90;;;;;;5032937;28;20195;-48
2022/06/28 11:15:58;;;;;;;1.33;0.80;;;20.50;99.90;;;;;;5033129;28;20726;-48
2022/06/28 11:18:25;;;;;;;0.87;0.70;;;20.50;99.90;;;;;;5033208;28;20213;-49
2022/06/28 11:20:52;;;;;;;1.83;1.00;;;20.60;99.90;;;;;;5033191;28;20191;-48
2022/06/28 11:23:26;;;;;;;2.50;1.20;;;20.60;99.90;;;;;;5028705;28;20269;-48
2022/06/28 11:28:54;;;;;;;1.00;1.00;;;20.70;99.90;;;;;;5022291;28;20201;-51
2022/06/28 11:31:21;;;;;;;0.67;0.67;;;20.70;99.90;;;;;;5027393;28;20213;-51
2022/06/28 11:33:48;;;;;;;0.70;0.70;;;20.80;99.90;;;;;;5023014;28;20233;-51
2022/06/28 11:36:22;;;;;;;0.70;0.70;;;20.70;99.90;;;;;;5028785;28;20708;-50
2022/06/28 11:38:51;;;;;;;2.83;1.27;;;20.80;99.90;;;;;;5021750;28;20238;-51
2022/06/28 11:41:32;;;;;;;4.93;1.90;;;20.90;99.90;;;;;;5022783;28;20313;-51
2022/06/28 11:44:00;;;;;;;1.63;1.53;;;21.00;99.90;;;;;;5023311;28;20201;-49
2022/06/28 11:46:28;;;;;;;2.20;1.20;;;20.80;99.90;;;;;;5026114;28;20250;-51
2022/06/28 11:48:56;;;;;;;3.57;1.50;;;20.80;99.90;;;;;;5026179;28;20202;-51
2022/06/28 11:51:29;;;;;;;1.17;0.70;;;20.80;99.90;;;;;;5022986;28;21179;-50
2022/06/28 11:53:58;;;;;;;2.47;0.70;;;20.90;99.90;;;;;;5024767;28;20218;-52
2022/06/28 11:56:25;;;;;;;1.40;1.30;;;20.90;99.90;;;;;;5023971;28;20853;-51
2022/06/28 11:58:54;;;;;;;0.93;0.70;;;21.00;99.90;;;;;;5023598;28;20669;-51
2022/06/28 12:01:24;;;;;;;1.20;1.03;;;21.10;99.90;;;;;;5025406;28;20320;-50
2022/06/28 12:03:59;;;;;;;2.30;1.10;;;21.30;99.90;;;;;;5024750;28;20209;-50
2022/06/28 12:06:29;;;;;;;1.30;1.20;;;21.30;99.90;;;;;;5024433;28;20261;-52
2022/06/28 12:09:00;;;;;;;1.90;0.90;;;21.30;99.90;;;;;;5026233;28;20203;-51
2022/06/28 12:11:35;;;;;;;1.53;1.20;;;21.50;99.90;;;;;;5032093;28;20206;-51
2022/06/28 12:14:09;;;;;;;1.73;1.50;;;21.70;99.90;;;;;;5033498;28;20202;-51
2022/06/28 12:16:38;;;;;;;2.37;1.37;;;21.80;99.90;;;;;;5032978;28;20222;-51
2022/06/28 12:19:07;;;;;;;1.63;1.40;;;21.90;99.90;;;;;;5032328;28;20226;-51
2022/06/28 12:21:35;;;;;;;2.07;1.47;;;21.90;99.90;;;;;;5028249;28;20651;-51
2022/06/28 12:24:04;;;;;;;1.87;1.13;;;22.00;99.90;;;;;;5028155;28;20250;-51
2022/06/28 12:26:43;;;;;;;0.70;0.70;;;22.00;99.90;;;;;;5033124;28;20226;-51
2022/06/28 12:29:11;;;;;;;2.73;1.43;;;22.00;99.90;;;;;;5031782;28;20567;-51
2022/06/28 12:31:42;;;;;;;0.93;0.93;;;22.10;99.90;;;;;;5026308;28;20679;-51
2022/06/28 12:34:10;;;;;;;0.90;0.87;;;22.30;99.90;;;;;;5033343;28;20294;-51
2022/06/28 12:36:37;;;;;;;0.90;0.67;;;22.20;99.90;;;;;;5033022;28;20222;-51
2022/06/28 12:39:06;;;;;;;0.97;0.97;;;22.20;99.90;;;;;;5023892;28;20274;-50
2022/06/28 12:41:32;;;;;;;0.63;0.63;;;22.30;99.90;;;;;;5032313;28;20258;-50
2022/06/28 12:44:00;;;;;;;1.07;0.80;;;22.20;99.90;;;;;;5030633;28;20718;-51
2022/06/28 12:46:27;;;;;;;0.70;0.70;;;22.30;99.90;;;;;;5032577;28;20218;-51
2022/06/28 12:48:54;;;;;;;1.00;1.00;;;22.30;99.90;;;;;;5032910;28;20203;-50
2022/06/28 12:51:21;;;;;;;0.60;0.60;;;22.30;99.90;;;;;;5031784;28;20720;-51
2022/06/28 12:53:48;;;;;;;2.60;1.00;;;22.20;99.90;;;;;;5031682;28;20261;-51
2022/06/28 12:56:17;;;;;;;0.90;0.90;;;22.10;99.90;;;;;;5032538;28;20245;-51
2022/06/28 12:58:45;;;;;;;0.87;0.70;;;22.00;99.90;;;;;;5032477;28;20202;-52
2022/06/28 13:01:12;;;;;;;2.20;0.90;;;21.90;99.90;;;;;;5031752;28;20194;-51
2022/06/28 13:03:39;;;;;;;1.27;1.00;;;21.80;99.90;;;;;;5025749;28;20202;-51
2022/06/28 13:06:07;;;;;;;0.73;0.73;;;21.70;99.90;;;;;;5031281;28;20699;-52
2022/06/28 13:08:34;;;;;;;1.17;1.17;;;21.70;99.90;;;;;;5026597;28;20742;-52
2022/06/28 13:11:01;;;;;;;1.37;1.17;;;21.60;99.90;;;;;;5018167;28;20222;-51
2022/06/28 13:13:30;;;;;;;1.37;1.23;;;21.50;99.90;;;;;;5031763;28;20568;-51